sensor_id;sensor_type;location;lat;lon;timestamp;temperature;humidity
44863;DHT22;30597;49.628;10.850;2024-03-08T00:01:48;20.30;58.50
44863;DHT22;30597;49.628;10.850;2024-03-08T00:04:15;20.30;58.60
44863;DHT22;30597;49.628;10.850;2024-03-08T00:06:41;20.30;58.50
44863;DHT22;30597;49.628;10.850;2024-03-08T00:09:07;20.30;58.50
44863;DHT22;30597;49.628;10.850;2024-03-08T00:11:33;20.20;58.40
44863;DHT22;30597;49.628;10.850;2024-03-08T00:14:00;20.20;58.50
44863;DHT22;30597;49.628;10.850;2024-03-08T00:16:25;20.20;58.50
44863;DHT22;30597;49.628;10.850;2024-03-08T00:18:51;20.10;58.50
44863;DHT22;30597;49.628;10.850;2024-03-08T00:21:16;20.10;58.60
44863;DHT22;30597;49.628;10.850;2024-03-08T00:23:42;20.00;58.50
44863;DHT22;30597;49.628;10.850;2024-03-08T00:26:08;20.00;58.60
44863;DHT22;30597;49.628;10.850;2024-03-08T00:28:33;19.90;58.50
44863;DHT22;30597;49.628;10.850;2024-03-08T00:31:00;19.90;58.60
44863;DHT22;30597;49.628;10.850;2024-03-08T00:33:25;19.90;58.60
44863;DHT22;30597;49.628;10.850;2024-03-08T00:35:53;19.90;58.70
44863;DHT22;30597;49.628;10.850;2024-03-08T00:38:18;19.90;58.80
44863;DHT22;30597;49.628;10.850;2024-03-08T00:40:44;19.80;58.70
44863;DHT22;30597;49.628;10.850;2024-03-08T00:43:10;19.80;58.70
44863;DHT22;30597;49.628;10.850;2024-03-08T00:45:35;19.80;58.80
44863;DHT22;30597;49.628;10.850;2024-03-08T00:48:02;19.80;58.80
44863;DHT22;30597;49.628;10.850;2024-03-08T00:50:28;19.70;58.80
44863;DHT22;30597;49.628;10.850;2024-03-08T00:52:54;19.70;58.80
44863;DHT22;30597;49.628;10.850;2024-03-08T00:55:19;19.70;58.90
44863;DHT22;30597;49.628;10.850;2024-03-08T00:57:45;19.70;58.90
44863;DHT22;30597;49.628;10.850;2024-03-08T01:00:11;19.60;59.00
44863;DHT22;30597;49.628;10.850;2024-03-08T01:02:38;19.60;59.10
44863;DHT22;30597;49.628;10.850;2024-03-08T01:05:04;19.60;59.20
44863;DHT22;30597;49.628;10.850;2024-03-08T01:07:33;19.60;59.20
44863;DHT22;30597;49.628;10.850;2024-03-08T01:09:59;19.60;59.40
44863;DHT22;30597;49.628;10.850;2024-03-08T01:12:26;19.50;59.30
44863;DHT22;30597;49.628;10.850;2024-03-08T01:14:51;19.50;59.30
44863;DHT22;30597;49.628;10.850;2024-03-08T01:17:17;19.50;59.40
44863;DHT22;30597;49.628;10.850;2024-03-08T01:19:42;19.50;59.40
44863;DHT22;30597;49.628;10.850;2024-03-08T01:22:10;19.50;59.50
44863;DHT22;30597;49.628;10.850;2024-03-08T01:24:36;19.50;59.50
44863;DHT22;30597;49.628;10.850;2024-03-08T01:27:02;19.50;59.60
44863;DHT22;30597;49.628;10.850;2024-03-08T01:29:28;19.40;59.60
44863;DHT22;30597;49.628;10.850;2024-03-08T01:31:55;19.50;59.60
44863;DHT22;30597;49.628;10.850;2024-03-08T01:34:24;19.50;59.80
44863;DHT22;30597;49.628;10.850;2024-03-08T01:36:50;19.40;59.80
44863;DHT22;30597;49.628;10.850;2024-03-08T01:39:15;19.30;59.70
44863;DHT22;30597;49.628;10.850;2024-03-08T01:41:42;19.40;59.90
44863;DHT22;30597;49.628;10.850;2024-03-08T01:44:08;19.30;59.80
44863;DHT22;30597;49.628;10.850;2024-03-08T01:46:34;19.30;59.80
44863;DHT22;30597;49.628;10.850;2024-03-08T01:49:01;19.30;59.80
44863;DHT22;30597;49.628;10.850;2024-03-08T01:51:28;19.30;60.80
44863;DHT22;30597;49.628;10.850;2024-03-08T01:54:04;19.30;60.10
44863;DHT22;30597;49.628;10.850;2024-03-08T01:56:30;19.30;60.00
44863;DHT22;30597;49.628;10.850;2024-03-08T01:58:57;19.20;60.00
44863;DHT22;30597;49.628;10.850;2024-03-08T02:01:23;19.20;60.00
44863;DHT22;30597;49.628;10.850;2024-03-08T02:03:50;19.20;60.10
44863;DHT22;30597;49.628;10.850;2024-03-08T02:06:16;19.20;60.10
44863;DHT22;30597;49.628;10.850;2024-03-08T02:08:43;19.20;60.20
44863;DHT22;30597;49.628;10.850;2024-03-08T02:11:12;19.20;60.30
44863;DHT22;30597;49.628;10.850;2024-03-08T02:13:38;19.20;60.20
44863;DHT22;30597;49.628;10.850;2024-03-08T02:16:04;19.10;60.20
44863;DHT22;30597;49.628;10.850;2024-03-08T02:18:33;19.10;60.20
44863;DHT22;30597;49.628;10.850;2024-03-08T02:21:01;19.10;60.30
44863;DHT22;30597;49.628;10.850;2024-03-08T02:23:27;19.10;60.40
44863;DHT22;30597;49.628;10.850;2024-03-08T02:25:54;19.00;61.20
44863;DHT22;30597;49.628;10.850;2024-03-08T02:28:20;19.10;60.60
44863;DHT22;30597;49.628;10.850;2024-03-08T02:30:47;19.10;60.60
44863;DHT22;30597;49.628;10.850;2024-03-08T02:33:16;19.10;60.50
44863;DHT22;30597;49.628;10.850;2024-03-08T02:35:43;19.10;60.80
44863;DHT22;30597;49.628;10.850;2024-03-08T02:38:14;19.00;60.70
44863;DHT22;30597;49.628;10.850;2024-03-08T02:40:44;19.00;60.70
44863;DHT22;30597;49.628;10.850;2024-03-08T02:43:11;19.00;60.70
44863;DHT22;30597;49.628;10.850;2024-03-08T02:45:36;19.00;60.70
44863;DHT22;30597;49.628;10.850;2024-03-08T02:48:02;19.00;60.50
44863;DHT22;30597;49.628;10.850;2024-03-08T02:50:28;19.00;60.60
44863;DHT22;30597;49.628;10.850;2024-03-08T02:52:54;19.00;60.70
44863;DHT22;30597;49.628;10.850;2024-03-08T02:55:19;19.00;60.90
44863;DHT22;30597;49.628;10.850;2024-03-08T02:57:46;19.00;60.90
44863;DHT22;30597;49.628;10.850;2024-03-08T03:00:14;19.00;61.00
44863;DHT22;30597;49.628;10.850;2024-03-08T03:02:41;19.00;61.00
44863;DHT22;30597;49.628;10.850;2024-03-08T03:05:08;19.00;61.00
44863;DHT22;30597;49.628;10.850;2024-03-08T03:07:35;18.90;60.80
44863;DHT22;30597;49.628;10.850;2024-03-08T03:10:01;19.00;60.80
44863;DHT22;30597;49.628;10.850;2024-03-08T03:12:31;18.90;61.00
44863;DHT22;30597;49.628;10.850;2024-03-08T03:14:57;18.90;61.00
44863;DHT22;30597;49.628;10.850;2024-03-08T03:17:23;18.80;61.00
44863;DHT22;30597;49.628;10.850;2024-03-08T03:19:50;18.80;61.00
44863;DHT22;30597;49.628;10.850;2024-03-08T03:22:15;18.90;61.30
44863;DHT22;30597;49.628;10.850;2024-03-08T03:24:41;18.80;61.30
44863;DHT22;30597;49.628;10.850;2024-03-08T03:27:08;18.80;61.30
44863;DHT22;30597;49.628;10.850;2024-03-08T03:29:40;18.80;61.30
44863;DHT22;30597;49.628;10.850;2024-03-08T03:32:08;18.80;61.40
44863;DHT22;30597;49.628;10.850;2024-03-08T03:34:34;18.80;61.50
44863;DHT22;30597;49.628;10.850;2024-03-08T03:37:03;18.80;61.60
44863;DHT22;30597;49.628;10.850;2024-03-08T03:39:29;18.80;61.60
44863;DHT22;30597;49.628;10.850;2024-03-08T03:42:02;18.70;61.70
44863;DHT22;30597;49.628;10.850;2024-03-08T03:44:28;18.80;61.80
44863;DHT22;30597;49.628;10.850;2024-03-08T03:46:54;18.70;61.50
44863;DHT22;30597;49.628;10.850;2024-03-08T03:49:19;18.70;61.50
44863;DHT22;30597;49.628;10.850;2024-03-08T03:51:46;18.70;61.60
44863;DHT22;30597;49.628;10.850;2024-03-08T03:54:12;18.70;61.60
44863;DHT22;30597;49.628;10.850;2024-03-08T03:56:37;18.70;61.70
44863;DHT22;30597;49.628;10.850;2024-03-08T03:59:05;18.60;61.70
44863;DHT22;30597;49.628;10.850;2024-03-08T04:01:32;18.70;61.70
44863;DHT22;30597;49.628;10.850;2024-03-08T04:03:57;18.70;61.70
44863;DHT22;30597;49.628;10.850;2024-03-08T04:06:23;18.70;61.60
44863;DHT22;30597;49.628;10.850;2024-03-08T04:08:49;18.60;61.70
44863;DHT22;30597;49.628;10.850;2024-03-08T04:11:15;18.60;61.60
44863;DHT22;30597;49.628;10.850;2024-03-08T04:13:42;18.60;61.70
44863;DHT22;30597;49.628;10.850;2024-03-08T04:16:08;18.60;61.70
44863;DHT22;30597;49.628;10.850;2024-03-08T04:18:34;18.60;61.70
44863;DHT22;30597;49.628;10.850;2024-03-08T04:21:06;18.60;62.60
44863;DHT22;30597;49.628;10.850;2024-03-08T04:23:34;18.60;61.90
44863;DHT22;30597;49.628;10.850;2024-03-08T04:26:03;18.50;62.00
44863;DHT22;30597;49.628;10.850;2024-03-08T04:28:29;18.50;62.10
44863;DHT22;30597;49.628;10.850;2024-03-08T04:30:55;18.50;62.00
44863;DHT22;30597;49.628;10.850;2024-03-08T04:33:20;18.50;62.10
44863;DHT22;30597;49.628;10.850;2024-03-08T04:35:47;18.50;62.00
44863;DHT22;30597;49.628;10.850;2024-03-08T04:38:12;18.50;62.10
44863;DHT22;30597;49.628;10.850;2024-03-08T04:40:38;18.50;62.00
44863;DHT22;30597;49.628;10.850;2024-03-08T04:43:04;18.50;62.20
44863;DHT22;30597;49.628;10.850;2024-03-08T04:45:30;18.40;62.10
44863;DHT22;30597;49.628;10.850;2024-03-08T04:47:56;18.40;62.10
44863;DHT22;30597;49.628;10.850;2024-03-08T04:50:22;18.40;62.10
44863;DHT22;30597;49.628;10.850;2024-03-08T04:52:47;18.40;62.20
44863;DHT22;30597;49.628;10.850;2024-03-08T04:55:13;18.40;62.20
44863;DHT22;30597;49.628;10.850;2024-03-08T04:57:38;18.40;62.20
44863;DHT22;30597;49.628;10.850;2024-03-08T05:00:04;18.40;62.30
44863;DHT22;30597;49.628;10.850;2024-03-08T05:02:37;18.40;62.30
44863;DHT22;30597;49.628;10.850;2024-03-08T05:05:05;18.40;62.50
44863;DHT22;30597;49.628;10.850;2024-03-08T05:07:31;18.40;62.40
44863;DHT22;30597;49.628;10.850;2024-03-08T05:09:58;18.40;62.40
44863;DHT22;30597;49.628;10.850;2024-03-08T05:12:24;18.30;62.40
44863;DHT22;30597;49.628;10.850;2024-03-08T05:14:49;18.30;62.30
44863;DHT22;30597;49.628;10.850;2024-03-08T05:17:15;18.30;62.40
44863;DHT22;30597;49.628;10.850;2024-03-08T05:19:42;18.30;62.40
44863;DHT22;30597;49.628;10.850;2024-03-08T05:22:07;18.40;62.60
44863;DHT22;30597;49.628;10.850;2024-03-08T05:24:33;18.30;62.50
44863;DHT22;30597;49.628;10.850;2024-03-08T05:26:59;18.30;62.50
44863;DHT22;30597;49.628;10.850;2024-03-08T05:29:26;18.30;62.50
44863;DHT22;30597;49.628;10.850;2024-03-08T05:31:52;18.30;62.50
44863;DHT22;30597;49.628;10.850;2024-03-08T05:34:17;18.40;62.80
44863;DHT22;30597;49.628;10.850;2024-03-08T05:36:45;18.30;62.70
44863;DHT22;30597;49.628;10.850;2024-03-08T05:39:12;18.30;62.70
44863;DHT22;30597;49.628;10.850;2024-03-08T05:41:39;18.30;62.70
44863;DHT22;30597;49.628;10.850;2024-03-08T05:44:05;18.30;62.80
44863;DHT22;30597;49.628;10.850;2024-03-08T05:46:31;18.20;62.70
44863;DHT22;30597;49.628;10.850;2024-03-08T05:48:57;18.20;62.90
44863;DHT22;30597;49.628;10.850;2024-03-08T05:51:24;18.30;63.00
44863;DHT22;30597;49.628;10.850;2024-03-08T05:53:52;18.20;63.00
44863;DHT22;30597;49.628;10.850;2024-03-08T05:56:19;18.20;63.00
44863;DHT22;30597;49.628;10.850;2024-03-08T05:58:44;18.20;63.00
44863;DHT22;30597;49.628;10.850;2024-03-08T06:01:11;18.20;62.90
44863;DHT22;30597;49.628;10.850;2024-03-08T06:03:38;18.20;63.10
44863;DHT22;30597;49.628;10.850;2024-03-08T06:06:13;18.20;63.20
44863;DHT22;30597;49.628;10.850;2024-03-08T06:08:39;18.20;63.30
44863;DHT22;30597;49.628;10.850;2024-03-08T06:11:05;18.20;63.10
44863;DHT22;30597;49.628;10.850;2024-03-08T06:13:33;18.20;63.20
44863;DHT22;30597;49.628;10.850;2024-03-08T06:15:59;18.20;63.20
44863;DHT22;30597;49.628;10.850;2024-03-08T06:18:26;18.20;63.30
44863;DHT22;30597;49.628;10.850;2024-03-08T06:20:51;18.20;63.20
44863;DHT22;30597;49.628;10.850;2024-03-08T06:23:18;18.20;63.20
44863;DHT22;30597;49.628;10.850;2024-03-08T06:25:46;18.20;63.20
44863;DHT22;30597;49.628;10.850;2024-03-08T06:28:11;18.20;63.10
44863;DHT22;30597;49.628;10.850;2024-03-08T06:30:39;18.30;63.60
44863;DHT22;30597;49.628;10.850;2024-03-08T06:33:05;18.40;63.60
44863;DHT22;30597;49.628;10.850;2024-03-08T06:35:31;18.40;63.30
44863;DHT22;30597;49.628;10.850;2024-03-08T06:37:58;18.60;63.20
44863;DHT22;30597;49.628;10.850;2024-03-08T06:40:23;18.70;63.10
44863;DHT22;30597;49.628;10.850;2024-03-08T06:42:49;18.80;62.80
44863;DHT22;30597;49.628;10.850;2024-03-08T06:45:14;18.90;62.60
44863;DHT22;30597;49.628;10.850;2024-03-08T06:47:44;19.00;62.50
44863;DHT22;30597;49.628;10.850;2024-03-08T06:50:11;19.10;62.50
44863;DHT22;30597;49.628;10.850;2024-03-08T06:52:36;19.10;62.30
44863;DHT22;30597;49.628;10.850;2024-03-08T06:55:02;19.10;62.30
44863;DHT22;30597;49.628;10.850;2024-03-08T06:57:33;19.10;62.00
44863;DHT22;30597;49.628;10.850;2024-03-08T06:59:59;19.10;61.30
44863;DHT22;30597;49.628;10.850;2024-03-08T07:02:24;19.10;60.70
44863;DHT22;30597;49.628;10.850;2024-03-08T07:04:51;19.10;60.50
44863;DHT22;30597;49.628;10.850;2024-03-08T07:07:16;19.00;60.60
44863;DHT22;30597;49.628;10.850;2024-03-08T07:09:46;19.10;60.60
44863;DHT22;30597;49.628;10.850;2024-03-08T07:12:11;19.20;60.70
44863;DHT22;30597;49.628;10.850;2024-03-08T07:14:38;19.30;60.50
44863;DHT22;30597;49.628;10.850;2024-03-08T07:17:07;19.50;60.40
44863;DHT22;30597;49.628;10.850;2024-03-08T07:19:34;19.60;60.20
44863;DHT22;30597;49.628;10.850;2024-03-08T07:22:00;19.60;60.00
44863;DHT22;30597;49.628;10.850;2024-03-08T07:24:25;19.80;60.00
44863;DHT22;30597;49.628;10.850;2024-03-08T07:27:09;19.80;60.00
44863;DHT22;30597;49.628;10.850;2024-03-08T07:29:35;19.90;60.00
44863;DHT22;30597;49.628;10.850;2024-03-08T07:32:01;20.00;59.70
44863;DHT22;30597;49.628;10.850;2024-03-08T07:34:50;20.10;59.70
44863;DHT22;30597;49.628;10.850;2024-03-08T07:37:16;20.10;59.50
44863;DHT22;30597;49.628;10.850;2024-03-08T07:39:42;20.20;59.20
44863;DHT22;30597;49.628;10.850;2024-03-08T07:42:09;20.20;59.00
44863;DHT22;30597;49.628;10.850;2024-03-08T07:44:35;20.20;58.80
44863;DHT22;30597;49.628;10.850;2024-03-08T07:47:00;20.30;58.60
44863;DHT22;30597;49.628;10.850;2024-03-08T07:49:26;20.30;58.60
44863;DHT22;30597;49.628;10.850;2024-03-08T07:51:52;20.40;58.60
44863;DHT22;30597;49.628;10.850;2024-03-08T07:54:17;20.60;58.70
44863;DHT22;30597;49.628;10.850;2024-03-08T07:56:43;20.50;59.20
44863;DHT22;30597;49.628;10.850;2024-03-08T07:59:09;20.60;58.50
44863;DHT22;30597;49.628;10.850;2024-03-08T08:01:36;20.70;58.40
44863;DHT22;30597;49.628;10.850;2024-03-08T08:04:02;20.60;58.20
44863;DHT22;30597;49.628;10.850;2024-03-08T08:06:27;20.70;58.40
44863;DHT22;30597;49.628;10.850;2024-03-08T08:08:53;20.70;58.40
44863;DHT22;30597;49.628;10.850;2024-03-08T08:11:19;20.80;58.40
44863;DHT22;30597;49.628;10.850;2024-03-08T08:13:45;20.70;58.30
44863;DHT22;30597;49.628;10.850;2024-03-08T08:16:11;20.80;58.30
44863;DHT22;30597;49.628;10.850;2024-03-08T08:18:38;20.80;58.30
44863;DHT22;30597;49.628;10.850;2024-03-08T08:21:05;20.80;58.20
44863;DHT22;30597;49.628;10.850;2024-03-08T08:23:34;20.80;58.30
44863;DHT22;30597;49.628;10.850;2024-03-08T08:26:00;20.90;58.40
44863;DHT22;30597;49.628;10.850;2024-03-08T08:28:26;20.90;58.20
44863;DHT22;30597;49.628;10.850;2024-03-08T08:30:52;20.90;58.20
44863;DHT22;30597;49.628;10.850;2024-03-08T08:33:17;21.00;58.10
44863;DHT22;30597;49.628;10.850;2024-03-08T08:35:43;21.00;57.60
44863;DHT22;30597;49.628;10.850;2024-03-08T08:38:09;21.00;57.60
44863;DHT22;30597;49.628;10.850;2024-03-08T08:40:34;21.00;57.50
44863;DHT22;30597;49.628;10.850;2024-03-08T08:43:01;21.10;57.60
44863;DHT22;30597;49.628;10.850;2024-03-08T08:45:30;21.10;57.50
44863;DHT22;30597;49.628;10.850;2024-03-08T08:47:55;21.10;57.60
44863;DHT22;30597;49.628;10.850;2024-03-08T08:50:21;21.10;57.40
44863;DHT22;30597;49.628;10.850;2024-03-08T08:52:50;21.20;57.40
44863;DHT22;30597;49.628;10.850;2024-03-08T08:55:16;21.20;57.20
44863;DHT22;30597;49.628;10.850;2024-03-08T08:57:46;21.30;57.30
44863;DHT22;30597;49.628;10.850;2024-03-08T09:00:13;21.20;57.20
44863;DHT22;30597;49.628;10.850;2024-03-08T09:02:41;21.30;57.30
44863;DHT22;30597;49.628;10.850;2024-03-08T09:05:07;21.30;57.20
44863;DHT22;30597;49.628;10.850;2024-03-08T09:07:33;21.30;57.30
44863;DHT22;30597;49.628;10.850;2024-03-08T09:09:59;21.30;57.20
44863;DHT22;30597;49.628;10.850;2024-03-08T09:12:25;21.30;57.20
44863;DHT22;30597;49.628;10.850;2024-03-08T09:14:51;21.30;57.00
44863;DHT22;30597;49.628;10.850;2024-03-08T09:17:17;21.40;57.10
44863;DHT22;30597;49.628;10.850;2024-03-08T09:19:48;21.30;57.10
44863;DHT22;30597;49.628;10.850;2024-03-08T09:22:14;21.30;57.20
44863;DHT22;30597;49.628;10.850;2024-03-08T09:24:39;21.30;57.00
44863;DHT22;30597;49.628;10.850;2024-03-08T09:27:05;21.30;57.20
44863;DHT22;30597;49.628;10.850;2024-03-08T09:29:31;21.20;57.30
44863;DHT22;30597;49.628;10.850;2024-03-08T09:31:57;21.20;57.10
44863;DHT22;30597;49.628;10.850;2024-03-08T09:34:22;21.20;57.20
44863;DHT22;30597;49.628;10.850;2024-03-08T09:36:49;21.20;57.20
44863;DHT22;30597;49.628;10.850;2024-03-08T09:39:17;21.20;57.20
44863;DHT22;30597;49.628;10.850;2024-03-08T09:41:44;21.20;57.20
44863;DHT22;30597;49.628;10.850;2024-03-08T09:44:10;21.10;57.10
44863;DHT22;30597;49.628;10.850;2024-03-08T09:46:35;21.00;56.80
44863;DHT22;30597;49.628;10.850;2024-03-08T09:49:01;21.00;56.90
44863;DHT22;30597;49.628;10.850;2024-03-08T09:51:31;21.00;57.00
44863;DHT22;30597;49.628;10.850;2024-03-08T09:53:58;20.90;57.00
44863;DHT22;30597;49.628;10.850;2024-03-08T09:56:24;20.90;57.10
44863;DHT22;30597;49.628;10.850;2024-03-08T09:58:50;20.80;57.20
44863;DHT22;30597;49.628;10.850;2024-03-08T10:01:31;20.90;57.20
44863;DHT22;30597;49.628;10.850;2024-03-08T10:03:57;21.00;57.30
44863;DHT22;30597;49.628;10.850;2024-03-08T10:06:23;21.00;56.90
44863;DHT22;30597;49.628;10.850;2024-03-08T10:08:50;21.10;57.00
44863;DHT22;30597;49.628;10.850;2024-03-08T10:11:17;21.20;56.80
44863;DHT22;30597;49.628;10.850;2024-03-08T10:13:44;21.30;56.80
44863;DHT22;30597;49.628;10.850;2024-03-08T10:16:12;21.30;56.70
44863;DHT22;30597;49.628;10.850;2024-03-08T10:18:37;21.30;56.70
44863;DHT22;30597;49.628;10.850;2024-03-08T10:23:30;21.40;56.40
44863;DHT22;30597;49.628;10.850;2024-03-08T10:25:55;21.50;56.50
44863;DHT22;30597;49.628;10.850;2024-03-08T10:28:23;21.50;56.30
44863;DHT22;30597;49.628;10.850;2024-03-08T10:30:50;21.50;56.20
44863;DHT22;30597;49.628;10.850;2024-03-08T10:33:15;21.60;56.20
44863;DHT22;30597;49.628;10.850;2024-03-08T10:35:41;21.60;56.20
44863;DHT22;30597;49.628;10.850;2024-03-08T10:38:08;21.70;56.20
44863;DHT22;30597;49.628;10.850;2024-03-08T10:40:39;21.70;56.20
44863;DHT22;30597;49.628;10.850;2024-03-08T10:43:11;21.70;56.10
44863;DHT22;30597;49.628;10.850;2024-03-08T10:45:40;21.70;55.90
44863;DHT22;30597;49.628;10.850;2024-03-08T10:48:30;21.80;56.00
44863;DHT22;30597;49.628;10.850;2024-03-08T10:51:02;21.80;56.00
44863;DHT22;30597;49.628;10.850;2024-03-08T10:53:29;21.70;55.70
44863;DHT22;30597;49.628;10.850;2024-03-08T10:55:56;21.70;56.00
44863;DHT22;30597;49.628;10.850;2024-03-08T10:58:24;21.70;55.90
44863;DHT22;30597;49.628;10.850;2024-03-08T11:00:54;21.70;56.10
44863;DHT22;30597;49.628;10.850;2024-03-08T11:06:09;21.50;55.60
44863;DHT22;30597;49.628;10.850;2024-03-08T11:08:40;21.50;55.60
44863;DHT22;30597;49.628;10.850;2024-03-08T11:11:06;21.40;55.50
44863;DHT22;30597;49.628;10.850;2024-03-08T11:13:48;21.30;55.60
44863;DHT22;30597;49.628;10.850;2024-03-08T11:16:37;21.30;55.50
44863;DHT22;30597;49.628;10.850;2024-03-08T11:19:22;21.20;55.70
44863;DHT22;30597;49.628;10.850;2024-03-08T11:21:57;21.20;55.70
44863;DHT22;30597;49.628;10.850;2024-03-08T11:24:23;21.10;55.30
44863;DHT22;30597;49.628;10.850;2024-03-08T11:26:49;21.10;55.30
44863;DHT22;30597;49.628;10.850;2024-03-08T11:34:31;21.10;55.70
44863;DHT22;30597;49.628;10.850;2024-03-08T11:36:58;21.10;55.90
44863;DHT22;30597;49.628;10.850;2024-03-08T11:39:24;21.20;55.80
44863;DHT22;30597;49.628;10.850;2024-03-08T11:41:49;21.30;55.70
44863;DHT22;30597;49.628;10.850;2024-03-08T11:44:15;21.30;55.60
44863;DHT22;30597;49.628;10.850;2024-03-08T11:46:42;21.40;55.50
44863;DHT22;30597;49.628;10.850;2024-03-08T11:49:12;21.50;55.10
44863;DHT22;30597;49.628;10.850;2024-03-08T11:51:38;21.50;54.80
44863;DHT22;30597;49.628;10.850;2024-03-08T11:54:04;21.60;54.90
44863;DHT22;30597;49.628;10.850;2024-03-08T11:56:31;21.50;54.70
44863;DHT22;30597;49.628;10.850;2024-03-08T11:58:57;21.60;54.80
44863;DHT22;30597;49.628;10.850;2024-03-08T12:01:23;21.60;54.80
44863;DHT22;30597;49.628;10.850;2024-03-08T12:03:58;21.70;54.90
44863;DHT22;30597;49.628;10.850;2024-03-08T12:06:25;21.70;54.90
44863;DHT22;30597;49.628;10.850;2024-03-08T12:08:51;21.70;54.90
44863;DHT22;30597;49.628;10.850;2024-03-08T12:11:17;21.80;54.90
44863;DHT22;30597;49.628;10.850;2024-03-08T12:13:48;21.80;54.90
44863;DHT22;30597;49.628;10.850;2024-03-08T12:16:17;21.80;54.90
44863;DHT22;30597;49.628;10.850;2024-03-08T12:18:51;21.90;55.00
44863;DHT22;30597;49.628;10.850;2024-03-08T12:21:19;21.90;54.90
44863;DHT22;30597;49.628;10.850;2024-03-08T12:24:10;21.90;55.00
44863;DHT22;30597;49.628;10.850;2024-03-08T12:26:39;21.90;54.70
44863;DHT22;30597;49.628;10.850;2024-03-08T12:29:20;21.90;54.60
44863;DHT22;30597;49.628;10.850;2024-03-08T12:31:54;21.80;54.40
44863;DHT22;30597;49.628;10.850;2024-03-08T12:34:20;21.80;54.60
44863;DHT22;30597;49.628;10.850;2024-03-08T12:36:51;21.70;54.40
44863;DHT22;30597;49.628;10.850;2024-03-08T12:39:19;21.80;54.50
44863;DHT22;30597;49.628;10.850;2024-03-08T12:41:50;21.60;54.20
44863;DHT22;30597;49.628;10.850;2024-03-08T12:44:20;21.60;54.20
44863;DHT22;30597;49.628;10.850;2024-03-08T12:46:47;21.50;54.90
44863;DHT22;30597;49.628;10.850;2024-03-08T12:49:13;21.50;54.40
44863;DHT22;30597;49.628;10.850;2024-03-08T12:51:43;21.40;54.90
44863;DHT22;30597;49.628;10.850;2024-03-08T12:54:09;21.40;54.60
44863;DHT22;30597;49.628;10.850;2024-03-08T12:56:35;21.30;54.50
44863;DHT22;30597;49.628;10.850;2024-03-08T12:59:03;21.20;54.60
44863;DHT22;30597;49.628;10.850;2024-03-08T13:01:30;21.20;54.30
44863;DHT22;30597;49.628;10.850;2024-03-08T13:03:57;21.10;54.30
44863;DHT22;30597;49.628;10.850;2024-03-08T13:06:24;21.00;54.30
44863;DHT22;30597;49.628;10.850;2024-03-08T13:08:52;21.10;54.40
44863;DHT22;30597;49.628;10.850;2024-03-08T13:11:19;21.20;54.30
44863;DHT22;30597;49.628;10.850;2024-03-08T13:13:45;21.30;54.20
44863;DHT22;30597;49.628;10.850;2024-03-08T13:16:11;21.40;54.00
44863;DHT22;30597;49.628;10.850;2024-03-08T13:18:40;21.50;54.00
44863;DHT22;30597;49.628;10.850;2024-03-08T13:21:07;21.50;53.90
44863;DHT22;30597;49.628;10.850;2024-03-08T13:23:35;21.60;53.80
44863;DHT22;30597;49.628;10.850;2024-03-08T13:26:10;21.60;53.60
44863;DHT22;30597;49.628;10.850;2024-03-08T13:28:45;21.70;53.70
44863;DHT22;30597;49.628;10.850;2024-03-08T13:31:10;21.80;53.70
44863;DHT22;30597;49.628;10.850;2024-03-08T13:33:37;21.80;53.60
44863;DHT22;30597;49.628;10.850;2024-03-08T13:36:08;21.90;53.60
44863;DHT22;30597;49.628;10.850;2024-03-08T13:38:43;21.80;53.50
44863;DHT22;30597;49.628;10.850;2024-03-08T13:41:10;21.90;53.50
44863;DHT22;30597;49.628;10.850;2024-03-08T13:43:37;22.00;53.60
44863;DHT22;30597;49.628;10.850;2024-03-08T13:46:03;21.90;53.40
44863;DHT22;30597;49.628;10.850;2024-03-08T13:48:29;21.90;53.30
44863;DHT22;30597;49.628;10.850;2024-03-08T13:50:55;21.90;53.30
44863;DHT22;30597;49.628;10.850;2024-03-08T13:53:22;21.90;53.20
44863;DHT22;30597;49.628;10.850;2024-03-08T13:55:49;21.90;53.20
44863;DHT22;30597;49.628;10.850;2024-03-08T13:58:15;21.90;53.30
44863;DHT22;30597;49.628;10.850;2024-03-08T14:00:41;21.80;53.10
44863;DHT22;30597;49.628;10.850;2024-03-08T14:03:09;21.80;53.20
44863;DHT22;30597;49.628;10.850;2024-03-08T14:05:38;21.80;53.40
44863;DHT22;30597;49.628;10.850;2024-03-08T14:08:05;21.70;53.40
44863;DHT22;30597;49.628;10.850;2024-03-08T14:10:33;21.70;53.40
44863;DHT22;30597;49.628;10.850;2024-03-08T14:12:59;21.60;53.40
44863;DHT22;30597;49.628;10.850;2024-03-08T14:15:25;21.50;53.40
44863;DHT22;30597;49.628;10.850;2024-03-08T14:17:54;21.50;53.50
44863;DHT22;30597;49.628;10.850;2024-03-08T14:20:20;21.50;53.60
44863;DHT22;30597;49.628;10.850;2024-03-08T14:22:56;21.40;53.30
44863;DHT22;30597;49.628;10.850;2024-03-08T14:25:22;21.40;53.60
44863;DHT22;30597;49.628;10.850;2024-03-08T14:27:52;21.40;53.60
44863;DHT22;30597;49.628;10.850;2024-03-08T14:30:28;21.40;53.70
44863;DHT22;30597;49.628;10.850;2024-03-08T14:33:01;21.40;53.80
44863;DHT22;30597;49.628;10.850;2024-03-08T14:35:27;21.30;54.10
44863;DHT22;30597;49.628;10.850;2024-03-08T14:37:55;21.40;54.00
44863;DHT22;30597;49.628;10.850;2024-03-08T14:40:22;21.50;53.90
44863;DHT22;30597;49.628;10.850;2024-03-08T14:42:49;21.50;53.00
44863;DHT22;30597;49.628;10.850;2024-03-08T14:45:15;21.60;52.70
44863;DHT22;30597;49.628;10.850;2024-03-08T14:47:41;21.60;52.60
44863;DHT22;30597;49.628;10.850;2024-03-08T14:50:08;21.70;52.60
44863;DHT22;30597;49.628;10.850;2024-03-08T14:52:35;21.70;52.50
44863;DHT22;30597;49.628;10.850;2024-03-08T14:55:01;21.80;52.50
44863;DHT22;30597;49.628;10.850;2024-03-08T14:57:31;21.80;52.50
44863;DHT22;30597;49.628;10.850;2024-03-08T14:59:58;21.90;52.40
44863;DHT22;30597;49.628;10.850;2024-03-08T15:02:28;21.90;52.40
44863;DHT22;30597;49.628;10.850;2024-03-08T15:04:53;21.90;52.30
44863;DHT22;30597;49.628;10.850;2024-03-08T15:07:23;22.00;52.40
44863;DHT22;30597;49.628;10.850;2024-03-08T15:09:49;22.00;52.30
44863;DHT22;30597;49.628;10.850;2024-03-08T15:12:15;22.00;52.40
44863;DHT22;30597;49.628;10.850;2024-03-08T15:14:40;22.00;52.30
44863;DHT22;30597;49.628;10.850;2024-03-08T15:17:09;22.00;52.30
44863;DHT22;30597;49.628;10.850;2024-03-08T15:19:38;22.00;52.30
44863;DHT22;30597;49.628;10.850;2024-03-08T15:22:04;22.00;52.10
44863;DHT22;30597;49.628;10.850;2024-03-08T15:24:29;22.00;52.20
44863;DHT22;30597;49.628;10.850;2024-03-08T15:26:56;22.00;52.40